Time;durP1;ratioP1;P1;durP2;ratioP2;P2;SDS_P1;SDS_P2;PMS_P1;PMS_P2;Temp;Humidity;BMP_temperature;BMP_pressure;BME280_temperature;BME280_humidity;BME280_pressure;Samples;Min_cycle;Max_cycle;Signal;HPM_P1;HPM_P2
2021/12/28 00:00:16;;;;;;;54.33;27.30;;;;;;;;;;5010054;28;96583;-68
2021/12/28 00:02:46;;;;;;;42.05;23.05;;;;;;;;;;5010550;28;92476;-68
2021/12/28 00:05:13;;;;;;;52.88;24.73;;;;;;;;;;4989920;28;93980;-68
2021/12/28 00:07:40;;;;;;;45.13;25.77;;;;;;;;;;4990837;28;93005;-67
2021/12/28 00:10:07;;;;;;;36.10;22.05;;;;;;;;;;4991669;28;93318;-68
2021/12/28 00:12:36;;;;;;;50.47;25.52;;;;;;;;;;4990000;28;94330;-68
2021/12/28 00:16:00;;;;;;;54.70;25.13;;;;;;;;;;4991519;28;92552;-68
2021/12/28 00:18:02;;;;;;;66.85;27.42;;;;;;;;;;4960146;28;92971;-68
2021/12/28 00:20:36;;;;;;;57.42;27.63;;;;;;;;;;4963464;28;93506;-69
2021/12/28 00:23:08;;;;;;;43.83;24.70;;;;;;;;;;4974825;28;93004;-68
2021/12/28 00:25:34;;;;;;;46.85;25.88;;;;;;;;;;4969637;28;95602;-68
2021/12/28 00:28:01;;;;;;;48.80;25.75;;;;;;;;;;4971542;28;92507;-68
2021/12/28 00:30:29;;;;;;;37.50;20.73;;;;;;;;;;4971874;28;94058;-68
2021/12/28 00:32:56;;;;;;;53.75;22.77;;;;;;;;;;4970265;28;94454;-68
2021/12/28 00:35:24;;;;;;;43.78;25.17;;;;;;;;;;4953658;28;92756;-68
2021/12/28 00:37:51;;;;;;;34.53;19.10;;;;;;;;;;4960094;28;92953;-68
2021/12/28 00:40:18;;;;;;;48.80;24.60;;;;;;;;;;4951255;28;94241;-69
2021/12/28 00:42:45;;;;;;;52.33;24.75;;;;;;;;;;4952872;28;91707;-68
2021/12/28 00:45:12;;;;;;;44.72;23.70;;;;;;;;;;4970396;28;94483;-67
2021/12/28 00:47:39;;;;;;;63.25;23.50;;;;;;;;;;4973579;28;94148;-68
2021/12/28 00:50:05;;;;;;;54.58;22.15;;;;;;;;;;4970451;28;94820;-68
2021/12/28 00:52:32;;;;;;;39.08;19.25;;;;;;;;;;4971470;28;93358;-68
2021/12/28 00:54:58;;;;;;;49.20;20.48;;;;;;;;;;4963827;28;94077;-67
2021/12/28 00:57:24;;;;;;;41.40;20.33;;;;;;;;;;4972556;28;93023;-68
2021/12/28 00:59:51;;;;;;;54.33;19.13;;;;;;;;;;4975563;28;94319;-68
2021/12/28 01:02:17;;;;;;;37.95;16.70;;;;;;;;;;4974376;28;93105;-68
2021/12/28 01:04:43;;;;;;;38.30;16.70;;;;;;;;;;4955789;28;93318;-68
2021/12/28 01:07:10;;;;;;;41.13;17.75;;;;;;;;;;4955402;28;93620;-68
2021/12/28 01:09:36;;;;;;;47.58;17.23;;;;;;;;;;4975958;28;93113;-68
2021/12/28 01:12:04;;;;;;;29.90;15.35;;;;;;;;;;4974897;28;93802;-68
2021/12/28 01:14:31;;;;;;;34.05;17.25;;;;;;;;;;4973248;28;95005;-68
2021/12/28 01:16:59;;;;;;;30.55;16.83;;;;;;;;;;4984541;28;95601;-68
2021/12/28 01:19:26;;;;;;;35.45;14.95;;;;;;;;;;4976671;28;93619;-68
2021/12/28 01:21:53;;;;;;;37.30;16.92;;;;;;;;;;4974309;28;92906;-68
2021/12/28 01:24:19;;;;;;;38.25;14.95;;;;;;;;;;4989307;28;94669;-68
2021/12/28 01:26:46;;;;;;;41.67;13.88;;;;;;;;;;4974506;28;94101;-68
2021/12/28 01:29:13;;;;;;;29.80;14.13;;;;;;;;;;4976419;28;92619;-69
2021/12/28 01:31:40;;;;;;;33.70;15.68;;;;;;;;;;4974932;28;93313;-69
2021/12/28 01:34:07;;;;;;;39.30;14.77;;;;;;;;;;4987840;28;92478;-68
2021/12/28 01:36:36;;;;;;;46.38;16.20;;;;;;;;;;4993252;28;94342;-69
2021/12/28 01:39:04;;;;;;;34.38;12.85;;;;;;;;;;4992050;28;96551;-69
2021/12/28 01:41:31;;;;;;;39.35;13.27;;;;;;;;;;4992578;28;92547;-69
2021/12/28 01:43:58;;;;;;;41.72;13.38;;;;;;;;;;4993536;28;94017;-69
2021/12/28 01:46:24;;;;;;;35.95;12.15;;;;;;;;;;4975714;28;93577;-69
2021/12/28 01:48:51;;;;;;;38.75;13.23;;;;;;;;;;4975031;28;92779;-68
2021/12/28 01:51:19;;;;;;;42.50;13.00;;;;;;;;;;4992266;28;93126;-69
2021/12/28 01:53:46;;;;;;;29.38;10.75;;;;;;;;;;4993711;28;92463;-69
2021/12/28 01:56:18;;;;;;;36.20;10.77;;;;;;;;;;4993315;28;94017;-68
2021/12/28 01:58:44;;;;;;;34.53;12.00;;;;;;;;;;4977032;28;93179;-68
2021/12/28 02:01:11;;;;;;;30.55;11.82;;;;;;;;;;4993810;28;92481;-68
2021/12/28 02:03:38;;;;;;;41.28;12.18;;;;;;;;;;4988767;28;94924;-67
2021/12/28 02:06:05;;;;;;;29.83;11.82;;;;;;;;;;4973366;28;94268;-68
2021/12/28 02:08:31;;;;;;;31.30;10.32;;;;;;;;;;4987475;28;92444;-68
2021/12/28 02:10:58;;;;;;;31.15;11.68;;;;;;;;;;5012211;28;93941;-68
2021/12/28 02:13:25;;;;;;;37.35;12.45;;;;;;;;;;4993412;28;94385;-68
2021/12/28 02:15:51;;;;;;;38.28;11.77;;;;;;;;;;4978633;28;94320;-69
2021/12/28 02:18:19;;;;;;;40.08;11.95;;;;;;;;;;4972520;28;94283;-68
2021/12/28 02:20:46;;;;;;;36.78;11.60;;;;;;;;;;4993674;28;93662;-68
2021/12/28 02:23:12;;;;;;;43.13;12.07;;;;;;;;;;4993541;28;93324;-68
2021/12/28 02:25:40;;;;;;;41.55;12.10;;;;;;;;;;4990774;28;94895;-67
2021/12/28 02:28:08;;;;;;;42.67;12.15;;;;;;;;;;4991698;28;94882;-67
2021/12/28 02:30:35;;;;;;;35.20;11.75;;;;;;;;;;4992928;28;97910;-67
2021/12/28 02:33:01;;;;;;;51.28;12.73;;;;;;;;;;4992772;28;94721;-68
2021/12/28 02:35:28;;;;;;;37.25;12.52;;;;;;;;;;4996059;28;93744;-67
2021/12/28 02:37:54;;;;;;;35.88;10.98;;;;;;;;;;4987026;28;94388;-68
2021/12/28 02:40:23;;;;;;;34.92;10.43;;;;;;;;;;4972460;28;93393;-68
2021/12/28 02:42:53;;;;;;;43.10;11.13;;;;;;;;;;4980144;28;94220;-68
2021/12/28 02:45:25;;;;;;;42.45;12.05;;;;;;;;;;4991812;28;93519;-69
2021/12/28 02:47:51;;;;;;;37.47;10.80;;;;;;;;;;4992004;28;92666;-67
2021/12/28 02:50:19;;;;;;;41.70;13.15;;;;;;;;;;4999652;28;93748;-68
2021/12/28 02:52:46;;;;;;;48.17;12.13;;;;;;;;;;4995023;28;96521;-67
2021/12/28 02:55:13;;;;;;;37.00;9.82;;;;;;;;;;4973040;28;92518;-67
2021/12/28 02:57:47;;;;;;;34.90;9.38;;;;;;;;;;4987371;28;95101;-68
2021/12/28 03:00:14;;;;;;;30.08;8.30;;;;;;;;;;4991827;28;93988;-68
2021/12/28 03:02:40;;;;;;;39.28;9.98;;;;;;;;;;4976027;28;93764;-68
2021/12/28 03:05:07;;;;;;;40.08;10.63;;;;;;;;;;4986065;28;93552;-68
2021/12/28 03:07:33;;;;;;;28.42;8.63;;;;;;;;;;5011742;28;93186;-67
2021/12/28 03:10:00;;;;;;;32.70;8.88;;;;;;;;;;5005729;28;94102;-68
2021/12/28 03:12:26;;;;;;;41.15;11.02;;;;;;;;;;4972863;28;94536;-68
2021/12/28 03:14:52;;;;;;;33.85;10.48;;;;;;;;;;4975660;28;92577;-68
2021/12/28 03:17:20;;;;;;;36.70;9.50;;;;;;;;;;4988614;28;95247;-68
2021/12/28 03:19:47;;;;;;;35.08;9.43;;;;;;;;;;4994711;28;93734;-67
2021/12/28 03:22:13;;;;;;;47.72;11.05;;;;;;;;;;4973052;28;93230;-68
2021/12/28 03:24:40;;;;;;;34.95;10.85;;;;;;;;;;4988807;28;94429;-67
2021/12/28 03:27:06;;;;;;;31.85;9.20;;;;;;;;;;4989131;28;92686;-68
2021/12/28 03:29:32;;;;;;;37.00;9.80;;;;;;;;;;4973214;28;93466;-68
2021/12/28 03:31:59;;;;;;;40.25;9.05;;;;;;;;;;4983022;28;92665;-67
2021/12/28 03:34:25;;;;;;;40.20;9.80;;;;;;;;;;4992642;28;92478;-68
2021/12/28 03:36:51;;;;;;;34.75;9.40;;;;;;;;;;4992275;28;93329;-67
2021/12/28 03:39:18;;;;;;;31.08;9.48;;;;;;;;;;4995993;28;93622;-68
2021/12/28 03:41:45;;;;;;;41.75;9.57;;;;;;;;;;4991636;28;95309;-68
2021/12/28 03:44:11;;;;;;;33.97;9.45;;;;;;;;;;4972033;28;94273;-68
2021/12/28 03:46:37;;;;;;;46.80;9.95;;;;;;;;;;5004421;28;92525;-67
2021/12/28 03:49:04;;;;;;;46.60;9.93;;;;;;;;;;4993048;28;93538;-68
2021/12/28 03:51:31;;;;;;;38.67;9.77;;;;;;;;;;4994159;28;93574;-67
2021/12/28 03:53:57;;;;;;;37.25;9.00;;;;;;;;;;4976365;28;92535;-68
2021/12/28 03:56:24;;;;;;;32.00;9.45;;;;;;;;;;4973801;28;94162;-68
2021/12/28 03:58:52;;;;;;;37.53;9.25;;;;;;;;;;4994070;28;92660;-68
2021/12/28 04:01:20;;;;;;;39.33;8.80;;;;;;;;;;4997837;28;92836;-67
2021/12/28 04:03:47;;;;;;;38.65;9.00;;;;;;;;;;4991155;28;94234;-68
2021/12/28 04:06:13;;;;;;;41.80;10.18;;;;;;;;;;4991653;28;94853;-68
2021/12/28 04:08:41;;;;;;;36.17;9.27;;;;;;;;;;4992257;28;96562;-68
2021/12/28 04:11:16;;;;;;;32.78;9.07;;;;;;;;;;4992503;28;93761;-67
2021/12/28 04:13:43;;;;;;;40.65;9.38;;;;;;;;;;4993374;28;93622;-68
2021/12/28 04:16:10;;;;;;;28.95;7.07;;;;;;;;;;4991874;28;93006;-68
2021/12/28 04:18:37;;;;;;;32.30;8.23;;;;;;;;;;4991775;28;93933;-68
2021/12/28 04:21:03;;;;;;;32.75;7.95;;;;;;;;;;4992474;28;92544;-68
2021/12/28 04:23:30;;;;;;;36.78;7.97;;;;;;;;;;4996175;28;94088;-68
2021/12/28 04:25:56;;;;;;;35.22;8.32;;;;;;;;;;5001648;28;92492;-68
2021/12/28 04:28:23;;;;;;;35.42;7.93;;;;;;;;;;4994777;28;92501;-67
2021/12/28 04:30:49;;;;;;;31.92;8.65;;;;;;;;;;4994240;28;95849;-68
2021/12/28 04:33:16;;;;;;;42.00;8.23;;;;;;;;;;4995069;28;93079;-68
2021/12/28 04:35:42;;;;;;;37.97;8.10;;;;;;;;;;4995750;28;94236;-67
2021/12/28 04:38:08;;;;;;;29.65;7.50;;;;;;;;;;5007341;28;92902;-67
2021/12/28 04:40:36;;;;;;;37.60;8.23;;;;;;;;;;5003345;28;92905;-68
2021/12/28 04:43:03;;;;;;;35.33;8.00;;;;;;;;;;4996044;28;94054;-68
2021/12/28 04:45:30;;;;;;;26.60;6.97;;;;;;;;;;4997651;28;93307;-67
2021/12/28 04:47:56;;;;;;;31.95;7.72;;;;;;;;;;4995624;28;92907;-68
2021/12/28 04:50:23;;;;;;;28.02;6.93;;;;;;;;;;4987500;28;94635;-68
2021/12/28 04:52:49;;;;;;;29.63;7.20;;;;;;;;;;4987958;28;92600;-68
2021/12/28 04:55:17;;;;;;;31.13;6.80;;;;;;;;;;4993899;28;95783;-68
2021/12/28 04:57:44;;;;;;;33.80;8.07;;;;;;;;;;4993273;28;93203;-68
2021/12/28 05:00:14;;;;;;;28.15;6.95;;;;;;;;;;4994839;28;93307;-68
2021/12/28 05:02:40;;;;;;;29.20;6.93;;;;;;;;;;4996909;28;93544;-68
2021/12/28 05:05:10;;;;;;;34.20;7.38;;;;;;;;;;4975983;28;93724;-68
2021/12/28 05:07:36;;;;;;;35.65;8.05;;;;;;;;;;4981704;28;92748;-68
2021/12/28 05:10:03;;;;;;;35.03;7.60;;;;;;;;;;4982064;28;93617;-69
2021/12/28 05:12:29;;;;;;;31.95;7.07;;;;;;;;;;4975912;28;91748;-68
2021/12/28 05:14:59;;;;;;;30.73;7.78;;;;;;;;;;4974480;28;93211;-68
2021/12/28 05:17:26;;;;;;;20.45;5.68;;;;;;;;;;4981285;28;94560;-68
2021/12/28 05:19:52;;;;;;;24.67;6.25;;;;;;;;;;4983036;28;94916;-68
2021/12/28 05:22:19;;;;;;;26.27;7.03;;;;;;;;;;4974583;28;95475;-68
2021/12/28 05:24:45;;;;;;;36.03;6.03;;;;;;;;;;4987336;28;93594;-68
2021/12/28 05:27:12;;;;;;;29.73;6.78;;;;;;;;;;4995422;28;92470;-68
2021/12/28 05:29:38;;;;;;;33.08;7.20;;;;;;;;;;4997021;28;94147;-69
2021/12/28 05:32:04;;;;;;;27.08;6.05;;;;;;;;;;4999016;28;92512;-68
2021/12/28 05:34:31;;;;;;;24.30;6.05;;;;;;;;;;4997965;28;94194;-69
2021/12/28 05:36:57;;;;;;;31.15;5.85;;;;;;;;;;4995231;28;93193;-68
2021/12/28 05:39:23;;;;;;;29.35;6.70;;;;;;;;;;4992744;28;92850;-69
2021/12/28 05:41:50;;;;;;;34.75;6.78;;;;;;;;;;4994261;28;93877;-68
2021/12/28 05:44:18;;;;;;;35.40;6.70;;;;;;;;;;4992609;28;95814;-68
2021/12/28 05:46:45;;;;;;;27.55;6.03;;;;;;;;;;4999256;28;94815;-68
2021/12/28 05:49:11;;;;;;;24.80;6.55;;;;;;;;;;5008376;28;93973;-68
2021/12/28 05:51:38;;;;;;;28.25;6.85;;;;;;;;;;4995129;28;92893;-68
2021/12/28 05:54:04;;;;;;;29.58;6.82;;;;;;;;;;4994392;28;94416;-68
2021/12/28 05:56:30;;;;;;;33.65;6.18;;;;;;;;;;4993212;28;94264;-68
2021/12/28 05:58:57;;;;;;;23.50;6.03;;;;;;;;;;4994663;28;92500;-68
2021/12/28 06:01:23;;;;;;;27.58;5.57;;;;;;;;;;4997473;28;94012;-68
2021/12/28 06:03:50;;;;;;;24.65;5.72;;;;;;;;;;4974129;28;94315;-68
2021/12/28 06:06:16;;;;;;;23.20;5.38;;;;;;;;;;4974635;28;92612;-69
2021/12/28 06:08:42;;;;;;;24.13;5.13;;;;;;;;;;4992567;28;94827;-70
2021/12/28 06:11:12;;;;;;;30.15;5.75;;;;;;;;;;4996218;28;94298;-69
2021/12/28 06:13:40;;;;;;;28.95;5.70;;;;;;;;;;4992759;28;94544;-68
2021/12/28 06:16:07;;;;;;;27.98;5.32;;;;;;;;;;4993922;28;94642;-69
2021/12/28 06:18:34;;;;;;;24.00;5.57;;;;;;;;;;4993753;28;92637;-68
2021/12/28 06:21:00;;;;;;;23.73;5.05;;;;;;;;;;4993991;28;93463;-68
2021/12/28 06:23:26;;;;;;;18.30;4.90;;;;;;;;;;4993562;28;92499;-68
2021/12/28 06:25:53;;;;;;;19.05;5.40;;;;;;;;;;4993712;28;91730;-68
2021/12/28 06:28:19;;;;;;;20.45;4.68;;;;;;;;;;4993813;28;93152;-68
2021/12/28 06:30:46;;;;;;;31.67;5.25;;;;;;;;;;4994289;28;94391;-68
2021/12/28 06:33:12;;;;;;;30.83;5.35;;;;;;;;;;4976025;28;94997;-68
2021/12/28 06:35:39;;;;;;;21.85;6.13;;;;;;;;;;4974004;28;94748;-68
2021/12/28 06:38:05;;;;;;;33.15;5.75;;;;;;;;;;4991371;28;92690;-68
2021/12/28 06:40:31;;;;;;;17.92;4.72;;;;;;;;;;4994171;28;93510;-68
2021/12/28 06:43:00;;;;;;;22.85;5.35;;;;;;;;;;4977068;28;94132;-67
2021/12/28 06:45:27;;;;;;;18.95;5.13;;;;;;;;;;4994853;28;92630;-68
2021/12/28 06:47:53;;;;;;;17.77;3.83;;;;;;;;;;5014337;28;92546;-68
2021/12/28 06:50:20;;;;;;;17.40;4.40;;;;;;;;;;5000681;28;91794;-68
2021/12/28 06:52:46;;;;;;;16.65;4.40;;;;;;;;;;4973604;28;93085;-69
2021/12/28 06:55:13;;;;;;;19.77;4.13;;;;;;;;;;4985482;28;93078;-68
2021/12/28 06:57:39;;;;;;;23.13;4.82;;;;;;;;;;4991235;28;94957;-68
2021/12/28 07:00:08;;;;;;;19.13;3.70;;;;;;;;;;4982671;28;96296;-68
2021/12/28 07:02:35;;;;;;;19.52;4.28;;;;;;;;;;4993080;28;93568;-68
2021/12/28 07:05:02;;;;;;;22.60;4.15;;;;;;;;;;4993498;28;93234;-69
2021/12/28 07:07:28;;;;;;;17.83;4.55;;;;;;;;;;4993091;28;93021;-69
2021/12/28 07:09:55;;;;;;;17.33;4.63;;;;;;;;;;4984174;28;93454;-70
2021/12/28 07:12:21;;;;;;;16.45;4.00;;;;;;;;;;4995236;28;92514;-69
2021/12/28 07:14:47;;;;;;;13.45;3.95;;;;;;;;;;4986495;28;93163;-70
2021/12/28 07:17:14;;;;;;;17.75;5.50;;;;;;;;;;4995774;28;94250;-69
2021/12/28 07:19:40;;;;;;;19.02;3.70;;;;;;;;;;4991363;28;93335;-69
2021/12/28 07:22:07;;;;;;;15.07;4.95;;;;;;;;;;4983634;28;96604;-70
2021/12/28 07:24:34;;;;;;;24.27;4.45;;;;;;;;;;4990788;28;92576;-68
2021/12/28 07:27:00;;;;;;;14.73;4.30;;;;;;;;;;4981463;28;93840;-69
2021/12/28 07:29:26;;;;;;;16.23;4.13;;;;;;;;;;4986088;28;93946;-68
2021/12/28 07:31:53;;;;;;;15.45;3.90;;;;;;;;;;4990029;28;92986;-68
2021/12/28 07:34:19;;;;;;;13.88;3.35;;;;;;;;;;4986123;28;93949;-68
2021/12/28 07:36:46;;;;;;;11.50;3.30;;;;;;;;;;4991877;28;94478;-69
2021/12/28 07:39:12;;;;;;;22.27;3.97;;;;;;;;;;4996519;28;91761;-69
2021/12/28 07:41:39;;;;;;;14.05;4.10;;;;;;;;;;4992218;28;94481;-69
2021/12/28 07:44:05;;;;;;;14.23;3.70;;;;;;;;;;4984429;28;92445;-69
2021/12/28 07:46:32;;;;;;;17.33;4.22;;;;;;;;;;4991174;28;94871;-69
2021/12/28 07:48:58;;;;;;;11.95;3.65;;;;;;;;;;4992266;28;93287;-68
2021/12/28 07:51:24;;;;;;;15.82;4.07;;;;;;;;;;4992441;28;92458;-68
2021/12/28 07:53:51;;;;;;;16.98;4.18;;;;;;;;;;4983986;28;93221;-69
2021/12/28 07:56:17;;;;;;;18.30;4.80;;;;;;;;;;4972324;28;94273;-69
2021/12/28 07:58:44;;;;;;;13.60;4.13;;;;;;;;;;4981677;28;92504;-69
2021/12/28 08:01:11;;;;;;;15.18;5.00;;;;;;;;;;4985529;28;95017;-69
2021/12/28 08:03:37;;;;;;;19.17;4.68;;;;;;;;;;4995756;28;92622;-69
2021/12/28 08:06:04;;;;;;;20.08;5.72;;;;;;;;;;4991568;28;92421;-69
2021/12/28 08:08:30;;;;;;;11.00;4.22;;;;;;;;;;4989376;28;95168;-69
2021/12/28 08:10:57;;;;;;;17.40;5.57;;;;;;;;;;4981457;28;95495;-70
2021/12/28 08:13:23;;;;;;;13.05;5.68;;;;;;;;;;4986316;28;95751;-69
2021/12/28 08:15:50;;;;;;;13.98;4.63;;;;;;;;;;4989249;28;94192;-69
2021/12/28 08:18:16;;;;;;;22.55;5.88;;;;;;;;;;4991153;28;92482;-69
2021/12/28 08:20:42;;;;;;;22.05;6.63;;;;;;;;;;4985628;28;94731;-69
2021/12/28 08:23:09;;;;;;;12.88;5.40;;;;;;;;;;4986326;28;92592;-69
2021/12/28 08:25:35;;;;;;;19.08;6.13;;;;;;;;;;4972052;28;93241;-68
2021/12/28 08:28:04;;;;;;;15.75;4.97;;;;;;;;;;4985022;28;93117;-69
2021/12/28 08:30:31;;;;;;;16.15;6.07;;;;;;;;;;4991717;28;93015;-68
2021/12/28 08:32:58;;;;;;;15.48;6.18;;;;;;;;;;4992357;28;93058;-68
2021/12/28 08:35:24;;;;;;;19.45;7.13;;;;;;;;;;4996871;28;96623;-69
2021/12/28 08:37:50;;;;;;;17.85;7.10;;;;;;;;;;4979773;28;92594;-68
2021/12/28 08:40:17;;;;;;;16.60;7.20;;;;;;;;;;4991991;28;93154;-68
2021/12/28 08:42:43;;;;;;;18.40;5.43;;;;;;;;;;4994933;28;96102;-68
2021/12/28 08:45:10;;;;;;;18.85;6.85;;;;;;;;;;4990691;28;95400;-67
2021/12/28 08:47:37;;;;;;;10.30;5.38;;;;;;;;;;4991725;28;94414;-69
2021/12/28 08:50:06;;;;;;;15.32;5.82;;;;;;;;;;4992503;28;92450;-69
2021/12/28 08:52:32;;;;;;;15.00;5.60;;;;;;;;;;4979186;28;94174;-69
2021/12/28 08:54:58;;;;;;;15.00;4.32;;;;;;;;;;4973645;28;93599;-69
2021/12/28 08:57:25;;;;;;;9.25;5.30;;;;;;;;;;4986281;28;92462;-69
2021/12/28 08:59:51;;;;;;;15.82;6.32;;;;;;;;;;4986632;28;94864;-70
2021/12/28 09:02:17;;;;;;;12.73;6.22;;;;;;;;;;4985050;28;94830;-69
2021/12/28 09:04:46;;;;;;;14.63;6.13;;;;;;;;;;4987798;28;92494;-70
2021/12/28 09:07:13;;;;;;;6.97;4.95;;;;;;;;;;4977871;28;94306;-68
2021/12/28 09:09:40;;;;;;;14.70;6.65;;;;;;;;;;4975579;28;92984;-68
2021/12/28 09:12:06;;;;;;;9.57;4.38;;;;;;;;;;4972064;28;94239;-69
2021/12/28 09:14:34;;;;;;;11.52;6.30;;;;;;;;;;4972754;28;94165;-69
2021/12/28 09:17:00;;;;;;;11.63;5.88;;;;;;;;;;4975338;28;92141;-70
2021/12/28 09:19:27;;;;;;;14.23;6.32;;;;;;;;;;4987716;28;93277;-69
2021/12/28 09:21:54;;;;;;;11.68;6.20;;;;;;;;;;4994419;28;94202;-69
2021/12/28 09:24:20;;;;;;;8.52;4.45;;;;;;;;;;4992835;28;94933;-69
2021/12/28 09:27:07;;;;;;;8.90;6.03;;;;;;;;;;4994496;28;96376;-69
2021/12/28 09:29:33;;;;;;;15.32;6.90;;;;;;;;;;4989908;28;92635;-69
2021/12/28 09:32:00;;;;;;;10.15;4.72;;;;;;;;;;4986794;28;93934;-69
2021/12/28 09:34:27;;;;;;;11.18;7.15;;;;;;;;;;4992099;28;93539;-70
2021/12/28 09:36:56;;;;;;;6.57;5.75;;;;;;;;;;4977861;28;92611;-69
2021/12/28 09:39:26;;;;;;;17.38;8.00;;;;;;;;;;4989076;28;93593;-69
2021/12/28 09:41:53;;;;;;;9.77;5.57;;;;;;;;;;4982986;28;93478;-69
2021/12/28 09:44:20;;;;;;;16.73;8.45;;;;;;;;;;4974513;28;92611;-69
2021/12/28 09:46:47;;;;;;;10.43;8.10;;;;;;;;;;4986316;28;94192;-69
2021/12/28 09:49:13;;;;;;;9.60;6.85;;;;;;;;;;4977803;28;95021;-69
2021/12/28 09:51:40;;;;;;;8.45;7.60;;;;;;;;;;4985536;28;96315;-69
2021/12/28 09:54:07;;;;;;;8.63;7.13;;;;;;;;;;4974485;28;93480;-69
2021/12/28 09:56:33;;;;;;;9.52;7.60;;;;;;;;;;4985820;28;92587;-70
2021/12/28 09:59:00;;;;;;;8.20;7.43;;;;;;;;;;4992326;28;93946;-69
2021/12/28 10:01:27;;;;;;;7.28;6.60;;;;;;;;;;4989793;28;94085;-70
2021/12/28 10:03:55;;;;;;;9.25;7.00;;;;;;;;;;4980093;28;93920;-69
2021/12/28 10:06:25;;;;;;;7.47;6.68;;;;;;;;;;4982648;28;93830;-69
2021/12/28 10:09:08;;;;;;;6.70;5.30;;;;;;;;;;4982990;28;94488;-69
2021/12/28 10:11:39;;;;;;;7.97;7.20;;;;;;;;;;4993687;28;93248;-69
2021/12/28 10:14:19;;;;;;;8.02;7.35;;;;;;;;;;4989762;28;96851;-69
2021/12/28 10:16:51;;;;;;;11.05;7.20;;;;;;;;;;4973244;28;92455;-69
2021/12/28 10:19:36;;;;;;;6.88;6.38;;;;;;;;;;4985897;28;94197;-69
2021/12/28 10:22:26;;;;;;;14.68;8.32;;;;;;;;;;4992254;28;94328;-69
2021/12/28 10:24:54;;;;;;;11.00;8.15;;;;;;;;;;4976119;28;92711;-68
2021/12/28 10:27:22;;;;;;;9.60;8.02;;;;;;;;;;4988859;28;93258;-68
2021/12/28 10:29:48;;;;;;;9.00;8.05;;;;;;;;;;4973497;28;93334;-68
2021/12/28 10:32:16;;;;;;;7.40;6.68;;;;;;;;;;4988758;28;94678;-69
2021/12/28 10:34:46;;;;;;;10.73;8.02;;;;;;;;;;4982651;28;94180;-69
2021/12/28 10:37:13;;;;;;;7.85;7.25;;;;;;;;;;4989222;28;92622;-69
2021/12/28 10:39:46;;;;;;;7.78;7.15;;;;;;;;;;4977570;28;94911;-69
2021/12/28 10:42:31;;;;;;;9.38;8.48;;;;;;;;;;4988274;28;94084;-68
2021/12/28 10:45:27;;;;;;;5.40;5.00;;;;;;;;;;4985144;28;93102;-69
2021/12/28 10:47:54;;;;;;;8.68;7.80;;;;;;;;;;4965659;28;93152;-68
2021/12/28 10:50:25;;;;;;;7.88;7.35;;;;;;;;;;4983089;28;94316;-69
2021/12/28 10:53:06;;;;;;;8.57;7.93;;;;;;;;;;4988719;28;92937;-68
2021/12/28 10:55:33;;;;;;;7.53;6.93;;;;;;;;;;4996195;28;94693;-68
2021/12/28 10:58:00;;;;;;;8.05;7.13;;;;;;;;;;4997220;28;91800;-69
2021/12/28 11:00:27;;;;;;;8.13;7.35;;;;;;;;;;4988710;28;93622;-68
2021/12/28 11:03:14;;;;;;;7.72;7.03;;;;;;;;;;4985789;28;93758;-68
2021/12/28 11:05:41;;;;;;;8.60;6.88;;;;;;;;;;4973133;28;95854;-67
2021/12/28 11:08:08;;;;;;;6.57;6.03;;;;;;;;;;4985706;28;95383;-67
2021/12/28 11:10:39;;;;;;;9.65;7.47;;;;;;;;;;4987561;28;94374;-68
2021/12/28 11:13:05;;;;;;;8.40;7.70;;;;;;;;;;4975819;28;93990;-68
2021/12/28 11:15:37;;;;;;;7.07;6.47;;;;;;;;;;4983370;28;93003;-68
2021/12/28 11:18:16;;;;;;;8.27;6.70;;;;;;;;;;4995137;28;93075;-69
2021/12/28 11:20:43;;;;;;;8.43;7.70;;;;;;;;;;4982420;28;94016;-68
2021/12/28 11:23:11;;;;;;;6.60;6.03;;;;;;;;;;4977420;28;92587;-67
2021/12/28 11:25:38;;;;;;;7.78;6.97;;;;;;;;;;4976915;28;94177;-67
2021/12/28 11:28:14;;;;;;;7.15;5.97;;;;;;;;;;4974628;28;94253;-67
2021/12/28 11:30:56;;;;;;;6.15;5.75;;;;;;;;;;4974153;28;95891;-68
2021/12/28 11:33:22;;;;;;;5.75;5.25;;;;;;;;;;4984369;28;92508;-67
2021/12/28 11:35:51;;;;;;;4.55;4.22;;;;;;;;;;4994458;28;95288;-68
2021/12/28 11:38:19;;;;;;;6.35;5.20;;;;;;;;;;4990307;28;93956;-67
2021/12/28 11:40:46;;;;;;;5.47;4.97;;;;;;;;;;4983968;28;92971;-68
2021/12/28 11:43:12;;;;;;;5.72;5.22;;;;;;;;;;4992726;28;94478;-68
2021/12/28 11:45:38;;;;;;;5.53;5.13;;;;;;;;;;4981231;28;92910;-68
2021/12/28 11:48:05;;;;;;;4.95;4.60;;;;;;;;;;4991869;28;95002;-68
2021/12/28 11:50:31;;;;;;;5.45;5.10;;;;;;;;;;4989877;28;94086;-68
2021/12/28 11:52:58;;;;;;;5.00;4.47;;;;;;;;;;4993039;28;93052;-68
2021/12/28 11:55:24;;;;;;;6.32;5.82;;;;;;;;;;4989122;28;96417;-68
2021/12/28 11:57:52;;;;;;;5.78;5.40;;;;;;;;;;4987067;28;93765;-69
2021/12/28 12:00:20;;;;;;;6.00;5.57;;;;;;;;;;4981393;28;92583;-69
2021/12/28 12:02:49;;;;;;;11.23;6.20;;;;;;;;;;4992555;28;93528;-68
2021/12/28 12:05:26;;;;;;;7.00;5.65;;;;;;;;;;4989667;28;93009;-69
2021/12/28 12:08:03;;;;;;;10.07;6.72;;;;;;;;;;4989808;28;93970;-68
2021/12/28 12:10:35;;;;;;;6.32;5.72;;;;;;;;;;4980065;28;94597;-66
2021/12/28 12:13:22;;;;;;;9.45;8.65;;;;;;;;;;4990816;28;91756;-68
2021/12/28 12:15:51;;;;;;;7.70;7.20;;;;;;;;;;4995709;28;93255;-69
2021/12/28 12:18:18;;;;;;;11.15;8.52;;;;;;;;;;4995981;28;93455;-64
2021/12/28 12:20:56;;;;;;;14.65;8.68;;;;;;;;;;4993195;28;94971;-67
2021/12/28 12:23:28;;;;;;;;;;;;;;;;;;4988801;28;95172;-67
2021/12/28 12:25:58;;;;;;;7.97;6.47;;;;;;;;;;4993513;28;94149;-67
2021/12/28 12:28:37;;;;;;;2.10;2.00;;;;;;;;;;4979643;28;93816;-67
2021/12/28 12:31:05;;;;;;;1.70;1.60;;;;;;;;;;4974790;28;93466;-68
2021/12/28 12:33:35;;;;;;;2.17;1.67;;;;;;;;;;4985851;28;92738;-68
2021/12/28 12:36:02;;;;;;;3.03;2.25;;;;;;;;;;4992421;28;93785;-69
2021/12/28 12:38:29;;;;;;;5.80;2.35;;;;;;;;;;4986747;28;92914;-69
2021/12/28 12:41:01;;;;;;;3.30;1.40;;;;;;;;;;4979249;28;92576;-68
2021/12/28 12:43:40;;;;;;;13.73;1.83;;;;;;;;;;4974404;28;94288;-68
2021/12/28 12:46:18;;;;;;;9.60;2.10;;;;;;;;;;4987999;28;96687;-68
2021/12/28 12:48:45;;;;;;;13.02;2.35;;;;;;;;;;4989706;28;96281;-69
2021/12/28 12:51:23;;;;;;;10.82;2.90;;;;;;;;;;4982116;28;93388;-69
2021/12/28 12:53:54;;;;;;;8.73;2.35;;;;;;;;;;4987818;28;92550;-69
2021/12/28 12:56:21;;;;;;;15.10;2.65;;;;;;;;;;4987174;28;94004;-69
2021/12/28 12:58:49;;;;;;;14.73;1.77;;;;;;;;;;4990810;28;94210;-68
2021/12/28 13:01:24;;;;;;;10.35;2.90;;;;;;;;;;4989959;28;92822;-69
2021/12/28 13:03:55;;;;;;;18.45;2.85;;;;;;;;;;4995340;28;94010;-69
2021/12/28 13:06:40;;;;;;;19.35;3.35;;;;;;;;;;4990306;28;94621;-68
2021/12/28 13:09:06;;;;;;;16.50;2.72;;;;;;;;;;4989606;28;92629;-68
2021/12/28 13:11:33;;;;;;;14.95;3.45;;;;;;;;;;4988449;28;95844;-69
2021/12/28 13:13:59;;;;;;;23.13;3.90;;;;;;;;;;4976475;28;93222;-68
2021/12/28 13:16:26;;;;;;;29.35;3.65;;;;;;;;;;4979545;28;94196;-68
2021/12/28 13:19:08;;;;;;;25.15;4.65;;;;;;;;;;4985347;28;93680;-68
2021/12/28 13:21:34;;;;;;;37.78;4.72;;;;;;;;;;4992901;28;93304;-68
2021/12/28 13:24:08;;;;;;;25.20;4.65;;;;;;;;;;4988273;28;92972;-69
2021/12/28 13:26:47;;;;;;;28.45;5.45;;;;;;;;;;4991330;28;94289;-69
2021/12/28 13:29:24;;;;;;;26.05;5.20;;;;;;;;;;4980636;28;91814;-68
2021/12/28 13:31:51;;;;;;;31.15;5.90;;;;;;;;;;4978378;28;92538;-68
2021/12/28 13:34:17;;;;;;;37.58;5.90;;;;;;;;;;4994384;28;92567;-68
2021/12/28 13:36:50;;;;;;;47.15;6.60;;;;;;;;;;4991040;28;96321;-67
2021/12/28 13:39:17;;;;;;;37.42;6.15;;;;;;;;;;4991556;28;93245;-68
2021/12/28 13:42:02;;;;;;;45.60;6.00;;;;;;;;;;4987370;28;94705;-68
2021/12/28 13:44:28;;;;;;;30.42;5.68;;;;;;;;;;4989974;28;93252;-68
2021/12/28 13:46:55;;;;;;;48.67;6.63;;;;;;;;;;4977602;28;93468;-69
2021/12/28 13:49:21;;;;;;;37.92;5.97;;;;;;;;;;4977132;28;92692;-69
2021/12/28 13:51:47;;;;;;;39.28;7.13;;;;;;;;;;4979998;28;93394;-69
2021/12/28 13:54:14;;;;;;;42.95;7.88;;;;;;;;;;4997056;28;92824;-67
2021/12/28 13:56:43;;;;;;;40.83;7.25;;;;;;;;;;4992889;28;92908;-68
2021/12/28 13:59:11;;;;;;;48.60;7.95;;;;;;;;;;4994701;28;93420;-68
2021/12/28 14:01:41;;;;;;;44.30;7.28;;;;;;;;;;4988891;28;96246;-68
2021/12/28 14:04:08;;;;;;;43.47;8.13;;;;;;;;;;4994680;28;95289;-69
2021/12/28 14:06:35;;;;;;;34.88;8.05;;;;;;;;;;4990281;28;93584;-69
2021/12/28 14:09:04;;;;;;;34.58;6.53;;;;;;;;;;4988397;28;92926;-68
2021/12/28 14:11:32;;;;;;;42.67;6.80;;;;;;;;;;4975080;28;94069;-68
2021/12/28 14:13:58;;;;;;;17.42;3.38;;;;;;;;;;4983213;28;93976;-67
2021/12/28 14:16:24;;;;;;;19.92;3.92;;;;;;;;;;4989496;28;93228;-67
2021/12/28 14:18:52;;;;;;;24.52;4.20;;;;;;;;;;4984218;28;93360;-68
2021/12/28 14:21:22;;;;;;;15.65;3.20;;;;;;;;;;4995295;28;92470;-67
2021/12/28 14:23:53;;;;;;;36.67;4.85;;;;;;;;;;4990336;28;94032;-67
2021/12/28 14:26:22;;;;;;;28.20;5.45;;;;;;;;;;4986309;28;96596;-67
2021/12/28 14:29:02;;;;;;;28.23;5.30;;;;;;;;;;4983125;28;93505;-67
2021/12/28 14:31:34;;;;;;;32.42;4.97;;;;;;;;;;4986665;28;93540;-67
2021/12/28 14:34:01;;;;;;;45.83;5.43;;;;;;;;;;4985157;28;93344;-67
2021/12/28 14:36:31;;;;;;;24.67;4.80;;;;;;;;;;4984400;28;92611;-68